createdAt,value
2023-03-04T00:00:09.686Z,0.20
2023-03-04T00:02:40.462Z,0.30
2023-03-04T00:05:09.621Z,0.30
2023-03-04T00:07:38.839Z,0.30
2023-03-04T00:10:08.236Z,0.30
2023-03-04T00:12:36.166Z,0.40
2023-03-04T00:15:04.779Z,0.50
2023-03-04T00:17:32.689Z,0.50
2023-03-04T00:20:00.595Z,0.40
2023-03-04T00:22:28.548Z,0.50
2023-03-04T00:24:57.795Z,0.60
2023-03-04T00:27:25.778Z,0.60
2023-03-04T00:29:53.754Z,0.60
2023-03-04T00:32:24.488Z,0.60
2023-03-04T00:34:52.444Z,0.50
2023-03-04T00:37:20.543Z,0.50
2023-03-04T00:39:48.509Z,0.50
2023-03-04T00:42:17.714Z,0.40
2023-03-04T00:44:45.908Z,0.40
2023-03-04T00:47:13.807Z,0.50
2023-03-04T00:49:41.778Z,0.50
2023-03-04T00:52:10.257Z,0.50
2023-03-04T00:54:38.305Z,0.50
2023-03-04T00:57:06.185Z,0.50
2023-03-04T00:59:35.765Z,0.40
2023-03-04T01:02:03.718Z,0.40
2023-03-04T01:04:31.714Z,0.50
2023-03-04T01:07:00.880Z,0.50
2023-03-04T01:09:30.119Z,0.60
2023-03-04T01:11:58.549Z,0.60
2023-03-04T01:14:26.925Z,0.40
2023-03-04T01:16:56.227Z,0.40
2023-03-04T01:19:24.330Z,0.40
2023-03-04T01:21:52.300Z,0.50
2023-03-04T01:24:20.463Z,0.60
2023-03-04T01:26:48.966Z,0.60
2023-03-04T01:29:16.863Z,0.50
2023-03-04T01:31:44.774Z,0.50
2023-03-04T01:34:15.242Z,0.40
2023-03-04T01:36:43.158Z,0.40
2023-03-04T01:39:11.089Z,0.40
2023-03-04T01:41:39.220Z,0.20
2023-03-04T01:44:07.398Z,0.20
2023-03-04T01:46:35.337Z,0.30
2023-03-04T01:49:03.394Z,0.40
2023-03-04T01:51:32.725Z,0.40
2023-03-04T01:54:00.661Z,0.50
2023-03-04T01:56:35.430Z,0.40
2023-03-04T01:59:13.472Z,0.40
2023-03-04T02:01:44.218Z,0.40
2023-03-04T02:04:13.348Z,0.40
2023-03-04T02:06:44.211Z,0.40
2023-03-04T02:09:12.599Z,0.40
2023-03-04T02:11:41.454Z,0.50
2023-03-04T02:14:12.654Z,0.50
2023-03-04T02:16:40.951Z,0.50
2023-03-04T02:19:20.534Z,0.50
2023-03-04T02:21:49.791Z,0.50
2023-03-04T02:24:26.258Z,0.50
2023-03-04T02:26:55.782Z,0.50
2023-03-04T02:29:23.931Z,0.40
2023-03-04T02:31:55.097Z,0.40
2023-03-04T02:34:28.497Z,0.40
2023-03-04T02:36:58.335Z,0.40
2023-03-04T02:39:34.724Z,0.40
2023-03-04T02:42:05.369Z,0.30
2023-03-04T02:44:38.966Z,0.30
2023-03-04T02:47:09.904Z,0.30
2023-03-04T02:49:41.442Z,0.30
2023-03-04T02:52:14.169Z,0.30
2023-03-04T02:54:43.035Z,0.40
2023-03-04T02:57:15.386Z,0.40
2023-03-04T02:59:47.060Z,0.40
2023-03-04T03:02:19.678Z,0.40
2023-03-04T03:04:47.627Z,0.40
2023-03-04T03:07:18.902Z,0.40
2023-03-04T03:09:47.191Z,0.50
2023-03-04T03:12:16.446Z,0.50
2023-03-04T03:14:44.534Z,0.50
2023-03-04T03:17:14.634Z,0.50
2023-03-04T03:19:42.671Z,0.50
2023-03-04T03:22:11.904Z,0.40
2023-03-04T03:24:39.954Z,0.40
2023-03-04T03:27:07.884Z,0.40
2023-03-04T03:29:37.427Z,0.40
2023-03-04T03:32:08.621Z,0.40
2023-03-04T03:34:36.576Z,0.50
2023-03-04T03:37:04.737Z,0.60
2023-03-04T03:39:32.699Z,0.70
2023-03-04T03:42:00.632Z,0.70
2023-03-04T03:44:28.793Z,0.70
2023-03-04T03:46:59.224Z,0.60
2023-03-04T03:49:27.471Z,0.70
2023-03-04T03:51:55.403Z,0.70
2023-03-04T03:54:23.396Z,0.80
2023-03-04T03:56:51.269Z,0.80
2023-03-04T03:59:19.170Z,0.80
2023-03-04T04:01:48.067Z,1.00
2023-03-04T04:04:17.387Z,1.00
2023-03-04T04:06:45.329Z,0.90
2023-03-04T04:09:13.250Z,0.90
2023-03-04T04:11:41.188Z,0.90
2023-03-04T04:14:12.518Z,0.90
2023-03-04T04:16:40.607Z,1.10
2023-03-04T04:19:09.046Z,1.10
2023-03-04T04:21:38.253Z,1.10
2023-03-04T04:24:06.300Z,1.10
2023-03-04T04:26:34.371Z,1.10
2023-03-04T04:29:02.364Z,1.20
2023-03-04T04:31:30.423Z,1.20
2023-03-04T04:33:58.449Z,1.10
2023-03-04T04:36:26.428Z,1.20
2023-03-04T04:38:55.644Z,1.20
2023-03-04T04:41:27.411Z,1.20
2023-03-04T04:43:55.659Z,1.30
2023-03-04T04:46:23.627Z,1.30
2023-03-04T04:48:51.693Z,1.30
2023-03-04T04:51:19.858Z,1.30
2023-03-04T04:53:47.818Z,1.30
2023-03-04T04:56:20.409Z,1.40
2023-03-04T04:58:49.686Z,1.50
2023-03-04T05:01:18.134Z,1.40
2023-03-04T05:03:46.423Z,1.40
2023-03-04T05:06:14.554Z,1.40
2023-03-04T05:08:42.652Z,1.40
2023-03-04T05:11:10.610Z,1.40
2023-03-04T05:13:40.001Z,1.40
2023-03-04T05:16:09.220Z,1.50
2023-03-04T05:18:37.298Z,1.50
2023-03-04T05:21:05.997Z,1.50
2023-03-04T05:23:36.642Z,1.50
2023-03-04T05:26:06.118Z,1.50
2023-03-04T05:28:34.464Z,1.50
2023-03-04T05:31:04.076Z,1.50
2023-03-04T05:33:32.248Z,1.50
2023-03-04T05:36:00.334Z,1.60
2023-03-04T05:38:28.355Z,1.60
2023-03-04T05:41:01.214Z,1.60
2023-03-04T05:43:30.015Z,1.60
2023-03-04T05:45:58.585Z,1.60
2023-03-04T05:48:28.910Z,1.60
2023-03-04T05:50:58.649Z,1.60
2023-03-04T05:53:26.995Z,1.60
2023-03-04T05:55:55.277Z,1.60
2023-03-04T05:58:23.980Z,1.60
2023-03-04T06:00:51.934Z,1.60
2023-03-04T06:03:23.477Z,1.60
2023-03-04T06:05:52.750Z,1.70
2023-03-04T06:08:20.804Z,1.70
2023-03-04T06:10:48.815Z,1.70
2023-03-04T06:13:16.709Z,1.70
2023-03-04T06:15:44.689Z,1.70
2023-03-04T06:18:12.635Z,1.70
2023-03-04T06:20:41.146Z,1.70
2023-03-04T06:23:10.357Z,1.70
2023-03-04T06:25:38.267Z,1.80
2023-03-04T06:28:06.307Z,1.90
2023-03-04T06:30:34.833Z,1.90
2023-03-04T06:33:02.744Z,1.90
2023-03-04T06:35:30.650Z,1.90
2023-03-04T06:37:58.608Z,1.90
2023-03-04T06:40:27.874Z,1.80
2023-03-04T06:42:55.787Z,1.80
2023-03-04T06:45:23.689Z,1.80
2023-03-04T06:47:51.564Z,1.90
2023-03-04T06:50:19.625Z,1.90
2023-03-04T06:52:48.319Z,1.90
2023-03-04T06:55:16.393Z,1.90
2023-03-04T06:57:48.415Z,2.00
2023-03-04T07:00:19.378Z,2.10
2023-03-04T07:02:47.301Z,2.10
2023-03-04T07:05:15.189Z,2.00
2023-03-04T07:07:44.156Z,2.00
2023-03-04T07:10:13.149Z,2.00
2023-03-04T07:12:41.123Z,2.00
2023-03-04T07:15:12.319Z,2.10
2023-03-04T07:17:40.210Z,2.10
2023-03-04T07:20:09.478Z,2.00
2023-03-04T07:22:37.432Z,2.00
2023-03-04T07:25:06.381Z,2.00
2023-03-04T07:27:34.731Z,1.90
2023-03-04T07:30:03.186Z,1.90
2023-03-04T07:32:34.379Z,2.00
2023-03-04T07:35:03.450Z,2.10
2023-03-04T07:37:31.429Z,2.10
2023-03-04T07:39:59.312Z,2.10
2023-03-04T07:42:27.199Z,2.10
2023-03-04T07:45:01.842Z,2.10
2023-03-04T07:47:29.962Z,2.10
2023-03-04T07:49:59.170Z,2.10
2023-03-04T07:52:27.235Z,2.20
2023-03-04T07:54:55.113Z,2.20
2023-03-04T07:57:23.009Z,2.20
2023-03-04T07:59:50.987Z,2.20
2023-03-04T08:02:18.951Z,2.30
2023-03-04T08:04:46.842Z,2.20
2023-03-04T08:07:16.479Z,2.30
2023-03-04T08:09:44.597Z,2.30
2023-03-04T08:12:12.550Z,2.30
2023-03-04T08:14:40.509Z,2.40
2023-03-04T08:17:09.800Z,2.50
2023-03-04T08:19:37.681Z,2.50
2023-03-04T08:22:05.562Z,2.40
2023-03-04T08:24:35.314Z,2.40
2023-03-04T08:27:03.455Z,2.40
2023-03-04T08:29:31.940Z,2.40
2023-03-04T08:32:00.252Z,2.40
2023-03-04T08:34:29.409Z,2.40
2023-03-04T08:36:57.325Z,2.40
2023-03-04T08:39:25.309Z,2.50
2023-03-04T08:41:54.568Z,2.50
2023-03-04T08:44:22.894Z,2.60
2023-03-04T08:46:51.611Z,2.60
2023-03-04T08:49:19.765Z,2.60
2023-03-04T08:51:47.744Z,2.60
2023-03-04T08:54:15.696Z,2.60
2023-03-04T08:56:43.836Z,2.60
2023-03-04T08:59:13.287Z,2.60
2023-03-04T09:01:41.239Z,2.60
2023-03-04T09:04:09.160Z,2.70
2023-03-04T09:06:37.200Z,2.70
2023-03-04T09:09:05.700Z,2.80
2023-03-04T09:11:33.661Z,2.80
2023-03-04T09:14:01.628Z,2.80
2023-03-04T09:16:30.872Z,2.80
2023-03-04T09:18:58.792Z,2.80
2023-03-04T09:21:26.726Z,2.80
2023-03-04T09:23:54.667Z,2.90
2023-03-04T09:26:26.020Z,2.90
2023-03-04T09:28:55.526Z,2.90
2023-03-04T09:31:24.345Z,2.90
2023-03-04T09:33:54.696Z,2.90
2023-03-04T09:36:23.892Z,2.90
2023-03-04T09:38:52.181Z,3.00
2023-03-04T09:41:27.325Z,3.00
2023-03-04T09:43:56.987Z,3.00
2023-03-04T09:46:33.285Z,3.10
2023-03-04T09:49:05.294Z,3.20
2023-03-04T09:51:49.676Z,3.20
2023-03-04T09:54:42.882Z,3.30
2023-03-04T09:57:28.939Z,3.30
2023-03-04T10:00:13.235Z,3.30
2023-03-04T10:03:02.498Z,3.40
2023-03-04T10:05:35.325Z,3.50
2023-03-04T10:08:32.900Z,3.50
2023-03-04T10:11:04.527Z,3.50
2023-03-04T10:13:39.900Z,3.50
2023-03-04T10:16:15.756Z,3.50
2023-03-04T10:18:52.503Z,3.50
2023-03-04T10:21:30.901Z,3.50
2023-03-04T10:23:59.909Z,3.60
2023-03-04T10:26:33.499Z,3.60
2023-03-04T10:29:03.010Z,3.70
2023-03-04T10:31:36.634Z,3.70
2023-03-04T10:34:05.318Z,3.70
2023-03-04T10:36:50.958Z,3.70
2023-03-04T10:39:25.907Z,3.70
2023-03-04T10:42:01.027Z,3.70
2023-03-04T10:44:30.118Z,3.70
2023-03-04T10:46:59.898Z,3.80
2023-03-04T10:49:30.021Z,3.80
2023-03-04T10:52:19.335Z,3.90
2023-03-04T10:54:52.989Z,3.90
2023-03-04T10:57:24.404Z,3.80
2023-03-04T10:59:58.249Z,3.80
2023-03-04T11:02:28.794Z,3.80
2023-03-04T11:05:08.729Z,3.90
2023-03-04T11:07:55.050Z,4.00
2023-03-04T11:10:29.701Z,4.00
2023-03-04T11:13:02.839Z,4.00
2023-03-04T11:15:50.582Z,3.90
2023-03-04T11:18:26.452Z,4.00
2023-03-04T11:20:56.754Z,4.00
2023-03-04T11:23:36.325Z,4.00
2023-03-04T11:26:11.358Z,4.20
2023-03-04T11:28:47.413Z,4.20
2023-03-04T11:31:22.255Z,4.10
2023-03-04T11:34:01.964Z,4.10
2023-03-04T11:36:41.408Z,4.10
2023-03-04T11:39:21.363Z,4.10
2023-03-04T11:42:00.488Z,4.10
2023-03-04T11:44:28.392Z,4.10
2023-03-04T11:47:23.731Z,4.20
2023-03-04T11:50:30.023Z,4.30
2023-03-04T11:53:30.266Z,4.30
2023-03-04T11:56:27.193Z,4.30
2023-03-04T11:59:31.045Z,4.30
2023-03-04T12:02:16.386Z,4.40
2023-03-04T12:05:17.296Z,4.50
2023-03-04T12:08:22.791Z,4.40
2023-03-04T12:11:01.653Z,4.30
2023-03-04T12:14:02.114Z,4.40
2023-03-04T12:16:53.412Z,4.30
2023-03-04T12:19:37.022Z,4.30
2023-03-04T12:22:28.980Z,4.30
2023-03-04T12:25:38.664Z,4.30
2023-03-04T12:28:27.711Z,4.40
2023-03-04T12:31:33.647Z,4.40
2023-03-04T12:34:44.033Z,4.40
2023-03-04T12:37:42.300Z,4.40
2023-03-04T12:40:37.838Z,4.40
2023-03-04T12:43:47.688Z,4.40
2023-03-04T12:46:48.068Z,4.40
2023-03-04T12:49:39.165Z,4.50
2023-03-04T12:52:19.101Z,4.60
2023-03-04T12:54:51.542Z,4.60
2023-03-04T12:57:23.942Z,4.50
2023-03-04T13:00:00.154Z,4.50
2023-03-04T13:02:54.110Z,4.50
2023-03-04T13:05:43.472Z,4.60
2023-03-04T13:08:29.012Z,4.70
2023-03-04T13:11:03.523Z,4.70
2023-03-04T13:13:41.627Z,4.70
2023-03-04T13:16:33.487Z,4.60
2023-03-04T13:19:03.070Z,4.60
2023-03-04T13:21:33.142Z,4.60
2023-03-04T13:24:45.815Z,4.70
2023-03-04T13:27:49.974Z,4.60
2023-03-04T13:30:42.465Z,4.70
2023-03-04T13:33:52.514Z,4.80
2023-03-04T13:36:55.744Z,4.90
2023-03-04T13:39:31.536Z,4.80
2023-03-04T13:42:00.277Z,4.70
2023-03-04T13:45:01.129Z,4.70
2023-03-04T13:47:44.352Z,4.70
2023-03-04T13:50:50.206Z,4.80
2023-03-04T13:53:49.963Z,4.90
2023-03-04T13:56:31.370Z,4.90
2023-03-04T13:59:28.673Z,5.00
2023-03-04T14:02:15.688Z,4.90
2023-03-04T14:04:45.852Z,4.90
2023-03-04T14:07:25.971Z,4.80
2023-03-04T14:10:02.429Z,4.80
2023-03-04T14:12:34.312Z,4.80
2023-03-04T14:15:06.493Z,4.80
2023-03-04T14:17:37.531Z,4.80
2023-03-04T14:20:24.483Z,4.80
2023-03-04T14:22:52.589Z,4.80
2023-03-04T14:25:28.160Z,4.80
2023-03-04T14:28:06.597Z,4.80
2023-03-04T14:30:42.659Z,4.80
2023-03-04T14:33:18.591Z,4.80
2023-03-04T14:35:50.370Z,4.80
2023-03-04T14:38:25.980Z,4.80
2023-03-04T14:40:59.811Z,4.80
2023-03-04T14:43:32.000Z,4.90
2023-03-04T14:46:03.241Z,4.80
2023-03-04T14:48:34.660Z,4.90
2023-03-04T14:51:04.181Z,4.90
2023-03-04T14:53:34.183Z,4.90
2023-03-04T14:56:06.454Z,4.90
2023-03-04T14:58:35.873Z,4.90
2023-03-04T15:01:18.132Z,4.90
2023-03-04T15:03:56.816Z,4.90
2023-03-04T15:06:27.848Z,4.90
2023-03-04T15:09:00.276Z,4.90
2023-03-04T15:11:33.894Z,5.00
2023-03-04T15:14:02.730Z,5.00
2023-03-04T15:16:55.867Z,5.00
2023-03-04T15:19:30.486Z,5.00
2023-03-04T15:22:06.272Z,5.00
2023-03-04T15:24:34.458Z,5.00
2023-03-04T15:27:07.692Z,5.00
2023-03-04T15:29:35.680Z,5.00
2023-03-04T15:32:03.618Z,5.00
2023-03-04T15:34:31.837Z,5.00
2023-03-04T15:37:01.161Z,5.00
2023-03-04T15:39:29.319Z,5.00
2023-03-04T15:41:57.246Z,5.00
2023-03-04T15:44:26.528Z,5.00
2023-03-04T15:46:54.506Z,5.00
2023-03-04T15:49:22.524Z,5.00
2023-03-04T15:51:50.768Z,5.00
2023-03-04T15:54:18.819Z,5.00
2023-03-04T15:56:46.812Z,5.00
2023-03-04T15:59:17.542Z,5.00
2023-03-04T16:01:46.851Z,5.00
2023-03-04T16:04:17.781Z,5.00
2023-03-04T16:06:48.049Z,4.90
2023-03-04T16:09:19.778Z,5.00
2023-03-04T16:11:49.050Z,4.90
2023-03-04T16:14:19.971Z,4.90
2023-03-04T16:16:50.465Z,4.90
2023-03-04T16:19:18.445Z,4.90
2023-03-04T16:21:47.463Z,4.90
2023-03-04T16:24:20.957Z,4.90
2023-03-04T16:26:49.815Z,4.90
2023-03-04T16:29:17.841Z,4.80
2023-03-04T16:31:45.744Z,4.90
2023-03-04T16:34:15.132Z,4.90
2023-03-04T16:36:44.131Z,4.90
2023-03-04T16:39:21.779Z,4.90
2023-03-04T16:41:50.194Z,4.90
2023-03-04T16:44:18.155Z,4.80
2023-03-04T16:46:46.208Z,4.80
2023-03-04T16:49:15.627Z,4.70
2023-03-04T16:51:48.692Z,4.70
2023-03-04T16:54:23.501Z,4.70
2023-03-04T16:56:51.710Z,4.60
2023-03-04T16:59:21.667Z,4.70
2023-03-04T17:01:50.316Z,4.60
2023-03-04T17:04:19.734Z,4.60
2023-03-04T17:06:47.680Z,4.60
2023-03-04T17:09:15.572Z,4.60
2023-03-04T17:11:43.832Z,4.60
2023-03-04T17:14:12.126Z,4.60
2023-03-04T17:16:40.070Z,4.50
2023-03-04T17:19:08.016Z,4.40
2023-03-04T17:21:37.273Z,4.40
2023-03-04T17:24:05.785Z,4.40
2023-03-04T17:26:33.798Z,4.40
2023-03-04T17:29:01.780Z,4.30
2023-03-04T17:31:29.780Z,4.30
2023-03-04T17:33:57.724Z,4.40
2023-03-04T17:36:26.263Z,4.40
2023-03-04T17:38:55.871Z,4.40
2023-03-04T17:41:24.947Z,4.50
2023-03-04T17:43:54.529Z,4.40
2023-03-04T17:46:24.849Z,4.40
2023-03-04T17:48:56.081Z,4.20
2023-03-04T17:51:34.584Z,4.20
2023-03-04T17:54:05.647Z,4.10
2023-03-04T17:56:34.806Z,4.00
2023-03-04T17:59:06.361Z,4.10
2023-03-04T18:01:35.408Z,4.00
2023-03-04T18:04:03.779Z,3.90
2023-03-04T18:06:31.884Z,3.90
2023-03-04T18:08:59.827Z,3.90
2023-03-04T18:11:32.341Z,3.90
2023-03-04T18:14:00.332Z,3.90
2023-03-04T18:16:28.885Z,3.80
2023-03-04T18:19:00.073Z,3.80
2023-03-04T18:21:30.532Z,3.90
2023-03-04T18:23:59.411Z,3.80
2023-03-04T18:26:29.527Z,3.80
2023-03-04T18:28:57.949Z,3.80
2023-03-04T18:31:32.112Z,3.90
2023-03-04T18:34:02.230Z,3.90
2023-03-04T18:36:30.805Z,3.90
2023-03-04T18:38:59.438Z,3.90
2023-03-04T18:41:29.137Z,3.90
2023-03-04T18:43:57.222Z,3.90
2023-03-04T18:46:32.787Z,3.90
2023-03-04T18:49:08.665Z,3.90
2023-03-04T18:51:36.794Z,3.90
2023-03-04T18:54:05.500Z,3.90
2023-03-04T18:56:43.043Z,3.90
2023-03-04T18:59:17.316Z,3.90
2023-03-04T19:01:46.429Z,4.00
2023-03-04T19:04:16.814Z,4.00
2023-03-04T19:06:45.102Z,3.90
2023-03-04T19:09:13.247Z,3.90
2023-03-04T19:11:42.611Z,4.00
2023-03-04T19:14:11.679Z,4.00
2023-03-04T19:16:40.164Z,3.90
2023-03-04T19:19:08.235Z,3.90
2023-03-04T19:21:40.195Z,3.90
2023-03-04T19:24:08.838Z,3.90
2023-03-04T19:26:36.836Z,3.90
2023-03-04T19:29:07.303Z,3.90
2023-03-04T19:31:39.981Z,3.90
2023-03-04T19:34:09.177Z,3.90
2023-03-04T19:36:37.371Z,3.90
2023-03-04T19:39:05.634Z,3.90
2023-03-04T19:41:33.935Z,3.90
2023-03-04T19:44:01.914Z,3.80
2023-03-04T19:46:32.244Z,3.90
2023-03-04T19:49:02.495Z,3.90
2023-03-04T19:51:32.185Z,3.90
2023-03-04T19:54:01.252Z,3.90
2023-03-04T19:56:29.843Z,3.90
2023-03-04T19:58:58.518Z,3.90
2023-03-04T20:01:29.451Z,3.90
2023-03-04T20:04:02.053Z,3.90
2023-03-04T20:06:31.056Z,3.90
2023-03-04T20:09:01.379Z,3.90
2023-03-04T20:11:31.664Z,3.90
2023-03-04T20:14:01.549Z,3.80
2023-03-04T20:16:30.298Z,3.90
2023-03-04T20:19:00.510Z,3.80
2023-03-04T20:21:32.004Z,3.80
2023-03-04T20:24:01.367Z,3.90
2023-03-04T20:26:31.435Z,3.80
2023-03-04T20:28:59.447Z,3.90
2023-03-04T20:31:31.366Z,3.90
2023-03-04T20:34:01.398Z,3.90
2023-03-04T20:36:30.986Z,3.80
2023-03-04T20:39:03.353Z,3.80
2023-03-04T20:41:34.582Z,3.80
2023-03-04T20:44:02.833Z,3.70
2023-03-04T20:46:37.950Z,3.80
2023-03-04T20:49:10.593Z,3.80
2023-03-04T20:51:39.376Z,3.70
2023-03-04T20:54:08.375Z,3.80
2023-03-04T20:56:37.886Z,3.70
2023-03-04T20:59:08.822Z,3.70
2023-03-04T21:01:39.132Z,3.70
2023-03-04T21:04:10.458Z,3.70
2023-03-04T21:06:39.538Z,3.60
2023-03-04T21:09:10.051Z,3.70
2023-03-04T21:11:41.087Z,3.60
2023-03-04T21:14:14.382Z,3.60
2023-03-04T21:16:43.309Z,3.70
2023-03-04T21:19:18.481Z,3.60
2023-03-04T21:21:47.583Z,3.60
2023-03-04T21:24:18.991Z,3.70
2023-03-04T21:26:48.254Z,3.70
2023-03-04T21:29:19.312Z,3.60
2023-03-04T21:31:51.332Z,3.70
2023-03-04T21:34:24.110Z,3.70
2023-03-04T21:36:52.764Z,3.80
2023-03-04T21:39:24.378Z,3.70
2023-03-04T21:41:53.692Z,3.70
2023-03-04T21:44:38.669Z,3.80
2023-03-04T21:47:16.459Z,3.90
2023-03-04T21:49:46.160Z,4.00
2023-03-04T21:52:14.647Z,3.90
2023-03-04T21:54:42.778Z,3.90
2023-03-04T21:57:11.381Z,3.80
2023-03-04T21:59:39.737Z,3.90
2023-03-04T22:02:08.894Z,3.80
2023-03-04T22:04:36.846Z,3.90
2023-03-04T22:07:06.075Z,3.80
2023-03-04T22:09:34.018Z,3.80
2023-03-04T22:12:02.073Z,3.70
2023-03-04T22:14:30.191Z,3.70
2023-03-04T22:16:58.682Z,3.70
2023-03-04T22:19:31.015Z,3.60
2023-03-04T22:21:59.104Z,3.50
2023-03-04T22:24:28.824Z,3.50
2023-03-04T22:26:57.644Z,3.50
2023-03-04T22:29:25.668Z,3.40
2023-03-04T22:31:53.726Z,3.50
2023-03-04T22:34:21.665Z,3.50
2023-03-04T22:36:50.198Z,3.60
2023-03-04T22:39:20.106Z,3.50
2023-03-04T22:41:49.766Z,3.40
2023-03-04T22:44:17.772Z,3.40
2023-03-04T22:46:45.841Z,3.40
2023-03-04T22:49:15.484Z,3.40
2023-03-04T22:51:45.200Z,3.40
2023-03-04T22:54:15.634Z,3.30
2023-03-04T22:56:44.627Z,3.30
2023-03-04T22:59:14.445Z,3.40
2023-03-04T23:01:42.813Z,3.30
2023-03-04T23:04:10.920Z,3.40
2023-03-04T23:06:39.164Z,3.50
2023-03-04T23:09:07.744Z,3.50
2023-03-04T23:11:37.119Z,3.60
2023-03-04T23:14:08.089Z,3.60
2023-03-04T23:16:42.572Z,3.40
2023-03-04T23:19:17.609Z,3.30
2023-03-04T23:21:46.101Z,3.40
2023-03-04T23:24:15.056Z,3.40
2023-03-04T23:26:43.778Z,3.30
2023-03-04T23:29:15.827Z,3.30
2023-03-04T23:31:45.241Z,3.30
2023-03-04T23:34:13.610Z,3.20
2023-03-04T23:36:42.288Z,3.10
2023-03-04T23:39:10.795Z,3.10
2023-03-04T23:41:39.718Z,3.10
2023-03-04T23:44:09.121Z,3.00
2023-03-04T23:46:37.778Z,3.00
2023-03-04T23:49:08.805Z,2.90
2023-03-04T23:51:37.232Z,2.90
2023-03-04T23:54:05.509Z,2.90
2023-03-04T23:56:33.555Z,2.90
2023-03-04T23:59:01.972Z,3.00
